sensor_id;sensor_type;location;lat;lon;timestamp;P1;durP1;ratioP1;P2;durP2;ratioP2
77598;SDS011;66758;52.078;5.070;2023-12-04T00:00:44;19.40;;;9.07;;
77598;SDS011;66758;52.078;5.070;2023-12-04T00:03:10;21.47;;;9.53;;
77598;SDS011;66758;52.078;5.070;2023-12-04T00:05:35;22.53;;;10.07;;
77598;SDS011;66758;52.078;5.070;2023-12-04T00:08:00;21.67;;;9.73;;
77598;SDS011;66758;52.078;5.070;2023-12-04T00:10:26;22.00;;;9.53;;
77598;SDS011;66758;52.078;5.070;2023-12-04T00:12:51;22.33;;;9.90;;
77598;SDS011;66758;52.078;5.070;2023-12-04T00:15:18;20.60;;;8.65;;
77598;SDS011;66758;52.078;5.070;2023-12-04T00:17:44;16.53;;;7.90;;
77598;SDS011;66758;52.078;5.070;2023-12-04T00:20:10;24.20;;;9.73;;
77598;SDS011;66758;52.078;5.070;2023-12-04T00:22:36;18.93;;;8.53;;
77598;SDS011;66758;52.078;5.070;2023-12-04T00:25:02;15.73;;;7.07;;
77598;SDS011;66758;52.078;5.070;2023-12-04T00:27:29;21.90;;;9.68;;
77598;SDS011;66758;52.078;5.070;2023-12-04T00:29:54;22.10;;;9.55;;
77598;SDS011;66758;52.078;5.070;2023-12-04T00:32:20;19.50;;;7.87;;
77598;SDS011;66758;52.078;5.070;2023-12-04T00:34:45;26.83;;;10.13;;
77598;SDS011;66758;52.078;5.070;2023-12-04T00:37:11;22.23;;;9.27;;
77598;SDS011;66758;52.078;5.070;2023-12-04T00:39:36;21.35;;;9.23;;
77598;SDS011;66758;52.078;5.070;2023-12-04T00:42:02;19.50;;;7.60;;
77598;SDS011;66758;52.078;5.070;2023-12-04T00:44:27;21.58;;;8.93;;
77598;SDS011;66758;52.078;5.070;2023-12-04T00:46:53;24.83;;;10.43;;
77598;SDS011;66758;52.078;5.070;2023-12-04T00:49:18;20.07;;;9.23;;
77598;SDS011;66758;52.078;5.070;2023-12-04T00:51:44;23.93;;;9.50;;
77598;SDS011;66758;52.078;5.070;2023-12-04T00:54:10;24.42;;;9.90;;
77598;SDS011;66758;52.078;5.070;2023-12-04T00:56:39;24.73;;;10.77;;
77598;SDS011;66758;52.078;5.070;2023-12-04T00:59:05;24.45;;;10.38;;
77598;SDS011;66758;52.078;5.070;2023-12-04T01:01:32;19.33;;;8.75;;
77598;SDS011;66758;52.078;5.070;2023-12-04T01:03:58;24.50;;;9.90;;
77598;SDS011;66758;52.078;5.070;2023-12-04T01:06:25;27.17;;;10.27;;
77598;SDS011;66758;52.078;5.070;2023-12-04T01:08:50;22.58;;;8.40;;
77598;SDS011;66758;52.078;5.070;2023-12-04T01:11:18;24.40;;;9.68;;
77598;SDS011;66758;52.078;5.070;2023-12-04T01:13:44;23.33;;;9.20;;
77598;SDS011;66758;52.078;5.070;2023-12-04T01:16:10;24.23;;;10.57;;
77598;SDS011;66758;52.078;5.070;2023-12-04T01:18:35;21.43;;;8.57;;
77598;SDS011;66758;52.078;5.070;2023-12-04T01:21:01;22.17;;;9.55;;
77598;SDS011;66758;52.078;5.070;2023-12-04T01:23:27;23.87;;;9.83;;
77598;SDS011;66758;52.078;5.070;2023-12-04T01:25:53;27.17;;;10.48;;
77598;SDS011;66758;52.078;5.070;2023-12-04T01:28:18;19.10;;;9.07;;
77598;SDS011;66758;52.078;5.070;2023-12-04T01:30:44;26.30;;;10.37;;
77598;SDS011;66758;52.078;5.070;2023-12-04T01:33:09;24.55;;;10.07;;
77598;SDS011;66758;52.078;5.070;2023-12-04T01:35:34;25.87;;;10.17;;
77598;SDS011;66758;52.078;5.070;2023-12-04T01:38:00;21.87;;;10.40;;
77598;SDS011;66758;52.078;5.070;2023-12-04T01:40:26;26.25;;;10.30;;
77598;SDS011;66758;52.078;5.070;2023-12-04T01:42:52;26.47;;;11.10;;
77598;SDS011;66758;52.078;5.070;2023-12-04T01:45:17;26.42;;;10.98;;
77598;SDS011;66758;52.078;5.070;2023-12-04T01:47:44;28.70;;;11.13;;
77598;SDS011;66758;52.078;5.070;2023-12-04T01:50:10;25.67;;;10.30;;
77598;SDS011;66758;52.078;5.070;2023-12-04T01:52:37;23.55;;;10.05;;
77598;SDS011;66758;52.078;5.070;2023-12-04T01:55:03;26.13;;;10.80;;
77598;SDS011;66758;52.078;5.070;2023-12-04T01:57:30;24.08;;;10.45;;
77598;SDS011;66758;52.078;5.070;2023-12-04T01:59:55;25.57;;;10.07;;
77598;SDS011;66758;52.078;5.070;2023-12-04T02:02:21;24.10;;;10.17;;
77598;SDS011;66758;52.078;5.070;2023-12-04T02:04:46;24.85;;;10.65;;
77598;SDS011;66758;52.078;5.070;2023-12-04T02:07:12;23.33;;;9.47;;
77598;SDS011;66758;52.078;5.070;2023-12-04T02:09:37;21.67;;;9.83;;
77598;SDS011;66758;52.078;5.070;2023-12-04T02:12:03;25.77;;;11.40;;
77598;SDS011;66758;52.078;5.070;2023-12-04T02:14:29;25.40;;;10.07;;
77598;SDS011;66758;52.078;5.070;2023-12-04T02:16:54;24.23;;;9.70;;
77598;SDS011;66758;52.078;5.070;2023-12-04T02:19:22;21.10;;;9.50;;
77598;SDS011;66758;52.078;5.070;2023-12-04T02:21:48;25.25;;;9.65;;
77598;SDS011;66758;52.078;5.070;2023-12-04T02:24:15;22.23;;;9.83;;
77598;SDS011;66758;52.078;5.070;2023-12-04T02:26:45;22.73;;;10.55;;
77598;SDS011;66758;52.078;5.070;2023-12-04T02:29:14;23.70;;;10.75;;
77598;SDS011;66758;52.078;5.070;2023-12-04T02:31:43;21.85;;;9.38;;
77598;SDS011;66758;52.078;5.070;2023-12-04T02:34:10;25.48;;;11.05;;
77598;SDS011;66758;52.078;5.070;2023-12-04T02:36:38;21.43;;;9.07;;
77598;SDS011;66758;52.078;5.070;2023-12-04T02:39:06;23.42;;;9.73;;
77598;SDS011;66758;52.078;5.070;2023-12-04T02:41:32;22.33;;;9.27;;
77598;SDS011;66758;52.078;5.070;2023-12-04T02:43:57;18.60;;;8.83;;
77598;SDS011;66758;52.078;5.070;2023-12-04T02:46:23;22.13;;;9.03;;
77598;SDS011;66758;52.078;5.070;2023-12-04T02:48:48;23.90;;;10.25;;
77598;SDS011;66758;52.078;5.070;2023-12-04T02:51:14;24.13;;;9.67;;
77598;SDS011;66758;52.078;5.070;2023-12-04T02:53:39;24.93;;;9.47;;
77598;SDS011;66758;52.078;5.070;2023-12-04T02:56:05;20.15;;;8.93;;
77598;SDS011;66758;52.078;5.070;2023-12-04T02:58:31;24.30;;;9.97;;
77598;SDS011;66758;52.078;5.070;2023-12-04T03:00:59;22.77;;;9.73;;
77598;SDS011;66758;52.078;5.070;2023-12-04T03:03:24;22.03;;;9.67;;
77598;SDS011;66758;52.078;5.070;2023-12-04T03:05:50;21.87;;;8.77;;
77598;SDS011;66758;52.078;5.070;2023-12-04T03:08:15;30.17;;;11.63;;
77598;SDS011;66758;52.078;5.070;2023-12-04T03:10:41;29.33;;;11.60;;
77598;SDS011;66758;52.078;5.070;2023-12-04T03:13:06;24.65;;;11.05;;
77598;SDS011;66758;52.078;5.070;2023-12-04T03:15:31;25.13;;;9.40;;
77598;SDS011;66758;52.078;5.070;2023-12-04T03:17:58;20.17;;;8.53;;
77598;SDS011;66758;52.078;5.070;2023-12-04T03:20:25;28.27;;;11.27;;
77598;SDS011;66758;52.078;5.070;2023-12-04T03:22:51;19.70;;;9.07;;
77598;SDS011;66758;52.078;5.070;2023-12-04T03:25:16;22.67;;;9.70;;
77598;SDS011;66758;52.078;5.070;2023-12-04T03:27:42;27.67;;;11.40;;
77598;SDS011;66758;52.078;5.070;2023-12-04T03:30:07;25.77;;;10.57;;
77598;SDS011;66758;52.078;5.070;2023-12-04T03:32:33;23.37;;;10.23;;
77598;SDS011;66758;52.078;5.070;2023-12-04T03:34:58;25.40;;;10.30;;
77598;SDS011;66758;52.078;5.070;2023-12-04T03:37:24;22.90;;;10.43;;
77598;SDS011;66758;52.078;5.070;2023-12-04T03:39:50;23.93;;;10.47;;
77598;SDS011;66758;52.078;5.070;2023-12-04T03:42:15;25.35;;;10.10;;
77598;SDS011;66758;52.078;5.070;2023-12-04T03:44:41;21.70;;;9.73;;
77598;SDS011;66758;52.078;5.070;2023-12-04T03:47:06;20.37;;;8.17;;
77598;SDS011;66758;52.078;5.070;2023-12-04T03:49:32;23.40;;;9.43;;
77598;SDS011;66758;52.078;5.070;2023-12-04T03:51:57;21.60;;;10.07;;
77598;SDS011;66758;52.078;5.070;2023-12-04T03:54:22;19.93;;;9.53;;
77598;SDS011;66758;52.078;5.070;2023-12-04T03:56:48;22.93;;;10.70;;
77598;SDS011;66758;52.078;5.070;2023-12-04T03:59:13;24.60;;;10.87;;
77598;SDS011;66758;52.078;5.070;2023-12-04T04:01:39;24.92;;;9.70;;
77598;SDS011;66758;52.078;5.070;2023-12-04T04:04:04;20.17;;;8.87;;
77598;SDS011;66758;52.078;5.070;2023-12-04T04:06:29;22.83;;;8.80;;
77598;SDS011;66758;52.078;5.070;2023-12-04T04:08:55;19.67;;;8.68;;
77598;SDS011;66758;52.078;5.070;2023-12-04T04:11:21;20.20;;;8.20;;
77598;SDS011;66758;52.078;5.070;2023-12-04T04:13:46;22.77;;;9.67;;
77598;SDS011;66758;52.078;5.070;2023-12-04T04:16:15;18.23;;;8.23;;
77598;SDS011;66758;52.078;5.070;2023-12-04T04:18:41;21.10;;;9.27;;
77598;SDS011;66758;52.078;5.070;2023-12-04T04:21:08;21.35;;;9.57;;
77598;SDS011;66758;52.078;5.070;2023-12-04T04:23:34;21.13;;;8.52;;
77598;SDS011;66758;52.078;5.070;2023-12-04T04:25:59;20.87;;;8.77;;
77598;SDS011;66758;52.078;5.070;2023-12-04T04:28:25;22.83;;;10.40;;
77598;SDS011;66758;52.078;5.070;2023-12-04T04:30:50;19.70;;;8.90;;
77598;SDS011;66758;52.078;5.070;2023-12-04T04:33:15;22.88;;;9.93;;
77598;SDS011;66758;52.078;5.070;2023-12-04T04:35:42;22.73;;;8.47;;
77598;SDS011;66758;52.078;5.070;2023-12-04T04:38:08;19.70;;;8.50;;
77598;SDS011;66758;52.078;5.070;2023-12-04T04:40:34;19.13;;;8.50;;
77598;SDS011;66758;52.078;5.070;2023-12-04T04:42:59;20.17;;;9.43;;
77598;SDS011;66758;52.078;5.070;2023-12-04T04:45:25;19.90;;;8.50;;
77598;SDS011;66758;52.078;5.070;2023-12-04T04:47:50;20.27;;;9.73;;
77598;SDS011;66758;52.078;5.070;2023-12-04T04:50:15;18.85;;;7.80;;
77598;SDS011;66758;52.078;5.070;2023-12-04T04:52:41;21.43;;;10.00;;
77598;SDS011;66758;52.078;5.070;2023-12-04T04:55:06;17.67;;;8.57;;
77598;SDS011;66758;52.078;5.070;2023-12-04T04:57:32;18.58;;;7.70;;
77598;SDS011;66758;52.078;5.070;2023-12-04T04:59:57;19.47;;;8.80;;
77598;SDS011;66758;52.078;5.070;2023-12-04T05:02:23;19.20;;;8.67;;
77598;SDS011;66758;52.078;5.070;2023-12-04T05:04:48;19.10;;;8.77;;
77598;SDS011;66758;52.078;5.070;2023-12-04T05:07:13;20.80;;;8.07;;
77598;SDS011;66758;52.078;5.070;2023-12-04T05:09:39;19.50;;;8.37;;
77598;SDS011;66758;52.078;5.070;2023-12-04T05:12:05;18.75;;;7.53;;
77598;SDS011;66758;52.078;5.070;2023-12-04T05:14:30;18.20;;;8.55;;
77598;SDS011;66758;52.078;5.070;2023-12-04T05:16:56;18.37;;;8.37;;
77598;SDS011;66758;52.078;5.070;2023-12-04T05:19:21;20.03;;;8.77;;
77598;SDS011;66758;52.078;5.070;2023-12-04T05:21:47;18.43;;;7.30;;
77598;SDS011;66758;52.078;5.070;2023-12-04T05:24:12;18.90;;;7.75;;
77598;SDS011;66758;52.078;5.070;2023-12-04T05:26:38;18.50;;;7.83;;
77598;SDS011;66758;52.078;5.070;2023-12-04T05:29:03;19.63;;;8.60;;
77598;SDS011;66758;52.078;5.070;2023-12-04T05:31:28;16.20;;;6.80;;
77598;SDS011;66758;52.078;5.070;2023-12-04T05:33:54;13.37;;;6.07;;
77598;SDS011;66758;52.078;5.070;2023-12-04T05:36:19;17.27;;;7.53;;
77598;SDS011;66758;52.078;5.070;2023-12-04T05:38:45;16.80;;;7.90;;
77598;SDS011;66758;52.078;5.070;2023-12-04T05:41:10;16.00;;;7.20;;
77598;SDS011;66758;52.078;5.070;2023-12-04T05:43:35;18.77;;;7.63;;
77598;SDS011;66758;52.078;5.070;2023-12-04T05:46:01;15.13;;;6.75;;
77598;SDS011;66758;52.078;5.070;2023-12-04T05:48:27;16.80;;;7.53;;
77598;SDS011;66758;52.078;5.070;2023-12-04T05:50:52;16.13;;;7.53;;
77598;SDS011;66758;52.078;5.070;2023-12-04T05:53:18;14.47;;;6.93;;
77598;SDS011;66758;52.078;5.070;2023-12-04T05:55:44;16.17;;;6.87;;
77598;SDS011;66758;52.078;5.070;2023-12-04T05:58:11;19.35;;;7.80;;
77598;SDS011;66758;52.078;5.070;2023-12-04T06:00:37;17.00;;;7.07;;
77598;SDS011;66758;52.078;5.070;2023-12-04T06:03:02;16.80;;;7.67;;
77598;SDS011;66758;52.078;5.070;2023-12-04T06:05:28;16.27;;;7.50;;
77598;SDS011;66758;52.078;5.070;2023-12-04T06:07:53;17.00;;;7.43;;
77598;SDS011;66758;52.078;5.070;2023-12-04T06:10:19;19.00;;;7.73;;
77598;SDS011;66758;52.078;5.070;2023-12-04T06:12:44;17.67;;;8.43;;
77598;SDS011;66758;52.078;5.070;2023-12-04T06:15:10;10.45;;;5.32;;
77598;SDS011;66758;52.078;5.070;2023-12-04T06:17:35;16.43;;;8.33;;
77598;SDS011;66758;52.078;5.070;2023-12-04T06:20:00;18.60;;;8.10;;
77598;SDS011;66758;52.078;5.070;2023-12-04T06:22:26;18.23;;;7.90;;
77598;SDS011;66758;52.078;5.070;2023-12-04T06:24:52;15.93;;;7.28;;
77598;SDS011;66758;52.078;5.070;2023-12-04T06:27:18;17.03;;;8.30;;
77598;SDS011;66758;52.078;5.070;2023-12-04T06:29:47;16.45;;;8.40;;
77598;SDS011;66758;52.078;5.070;2023-12-04T06:32:14;16.15;;;7.78;;
77598;SDS011;66758;52.078;5.070;2023-12-04T06:34:40;15.30;;;6.80;;
77598;SDS011;66758;52.078;5.070;2023-12-04T06:37:12;18.10;;;8.70;;
77598;SDS011;66758;52.078;5.070;2023-12-04T06:39:39;16.95;;;7.70;;
77598;SDS011;66758;52.078;5.070;2023-12-04T06:42:05;15.93;;;7.88;;
77598;SDS011;66758;52.078;5.070;2023-12-04T06:44:32;18.13;;;8.57;;
77598;SDS011;66758;52.078;5.070;2023-12-04T06:46:59;14.83;;;8.10;;
77598;SDS011;66758;52.078;5.070;2023-12-04T06:49:26;13.63;;;6.50;;
77598;SDS011;66758;52.078;5.070;2023-12-04T06:52:00;13.35;;;6.47;;
77598;SDS011;66758;52.078;5.070;2023-12-04T06:54:26;16.05;;;8.38;;
77598;SDS011;66758;52.078;5.070;2023-12-04T06:56:52;17.30;;;7.77;;
77598;SDS011;66758;52.078;5.070;2023-12-04T06:59:18;12.18;;;6.68;;
77598;SDS011;66758;52.078;5.070;2023-12-04T07:01:44;16.58;;;7.88;;
77598;SDS011;66758;52.078;5.070;2023-12-04T07:04:09;14.00;;;7.33;;
77598;SDS011;66758;52.078;5.070;2023-12-04T07:06:41;15.70;;;7.73;;
77598;SDS011;66758;52.078;5.070;2023-12-04T07:09:06;16.73;;;7.82;;
77598;SDS011;66758;52.078;5.070;2023-12-04T07:11:35;17.70;;;8.25;;
77598;SDS011;66758;52.078;5.070;2023-12-04T07:14:01;16.37;;;7.80;;
77598;SDS011;66758;52.078;5.070;2023-12-04T07:16:26;15.45;;;7.40;;
77598;SDS011;66758;52.078;5.070;2023-12-04T07:18:51;15.37;;;7.70;;
77598;SDS011;66758;52.078;5.070;2023-12-04T07:21:17;14.63;;;7.15;;
77598;SDS011;66758;52.078;5.070;2023-12-04T07:23:43;14.30;;;7.03;;
77598;SDS011;66758;52.078;5.070;2023-12-04T07:26:08;22.43;;;6.70;;
77598;SDS011;66758;52.078;5.070;2023-12-04T07:28:34;15.43;;;8.03;;
77598;SDS011;66758;52.078;5.070;2023-12-04T07:31:00;17.33;;;8.50;;
77598;SDS011;66758;52.078;5.070;2023-12-04T07:33:27;15.60;;;8.20;;
77598;SDS011;66758;52.078;5.070;2023-12-04T07:35:52;15.87;;;7.50;;
77598;SDS011;66758;52.078;5.070;2023-12-04T07:38:18;14.90;;;6.95;;
77598;SDS011;66758;52.078;5.070;2023-12-04T07:40:44;14.70;;;7.10;;
77598;SDS011;66758;52.078;5.070;2023-12-04T07:43:10;15.30;;;8.07;;
77598;SDS011;66758;52.078;5.070;2023-12-04T07:45:35;14.43;;;7.27;;
77598;SDS011;66758;52.078;5.070;2023-12-04T07:48:02;14.10;;;6.75;;
77598;SDS011;66758;52.078;5.070;2023-12-04T07:50:28;15.32;;;6.70;;
77598;SDS011;66758;52.078;5.070;2023-12-04T07:52:54;12.07;;;7.03;;
77598;SDS011;66758;52.078;5.070;2023-12-04T07:55:20;13.15;;;6.35;;
77598;SDS011;66758;52.078;5.070;2023-12-04T07:57:45;10.60;;;5.13;;
77598;SDS011;66758;52.078;5.070;2023-12-04T08:00:10;18.33;;;7.17;;
77598;SDS011;66758;52.078;5.070;2023-12-04T08:02:37;14.30;;;6.82;;
77598;SDS011;66758;52.078;5.070;2023-12-04T08:05:02;14.77;;;6.93;;
77598;SDS011;66758;52.078;5.070;2023-12-04T08:07:28;12.73;;;6.07;;
77598;SDS011;66758;52.078;5.070;2023-12-04T08:09:54;12.40;;;6.17;;
77598;SDS011;66758;52.078;5.070;2023-12-04T08:12:19;13.93;;;6.53;;
77598;SDS011;66758;52.078;5.070;2023-12-04T08:14:45;12.93;;;6.63;;
77598;SDS011;66758;52.078;5.070;2023-12-04T08:17:11;10.80;;;4.95;;
77598;SDS011;66758;52.078;5.070;2023-12-04T08:19:37;15.33;;;6.60;;
77598;SDS011;66758;52.078;5.070;2023-12-04T08:22:03;12.38;;;6.22;;
77598;SDS011;66758;52.078;5.070;2023-12-04T08:24:29;12.17;;;5.03;;
77598;SDS011;66758;52.078;5.070;2023-12-04T08:26:56;12.50;;;7.00;;
77598;SDS011;66758;52.078;5.070;2023-12-04T08:29:22;14.25;;;6.65;;
77598;SDS011;66758;52.078;5.070;2023-12-04T08:31:47;10.77;;;5.70;;
77598;SDS011;66758;52.078;5.070;2023-12-04T08:34:13;11.82;;;5.80;;
77598;SDS011;66758;52.078;5.070;2023-12-04T08:36:38;11.20;;;6.10;;
77598;SDS011;66758;52.078;5.070;2023-12-04T08:39:04;16.27;;;7.00;;
77598;SDS011;66758;52.078;5.070;2023-12-04T08:41:29;11.33;;;6.17;;
77598;SDS011;66758;52.078;5.070;2023-12-04T08:43:55;12.63;;;5.60;;
77598;SDS011;66758;52.078;5.070;2023-12-04T08:46:20;12.37;;;5.33;;
77598;SDS011;66758;52.078;5.070;2023-12-04T08:48:46;13.20;;;6.97;;
77598;SDS011;66758;52.078;5.070;2023-12-04T08:51:15;14.63;;;6.50;;
77598;SDS011;66758;52.078;5.070;2023-12-04T08:53:42;9.93;;;5.65;;
77598;SDS011;66758;52.078;5.070;2023-12-04T08:56:07;10.30;;;5.47;;
77598;SDS011;66758;52.078;5.070;2023-12-04T08:58:33;11.70;;;6.45;;
77598;SDS011;66758;52.078;5.070;2023-12-04T09:00:59;11.80;;;5.80;;
77598;SDS011;66758;52.078;5.070;2023-12-04T09:03:24;10.87;;;5.40;;
77598;SDS011;66758;52.078;5.070;2023-12-04T09:05:50;11.23;;;5.97;;
77598;SDS011;66758;52.078;5.070;2023-12-04T09:08:16;11.73;;;5.40;;
77598;SDS011;66758;52.078;5.070;2023-12-04T09:10:43;13.10;;;5.85;;
77598;SDS011;66758;52.078;5.070;2023-12-04T09:13:10;11.85;;;5.50;;
77598;SDS011;66758;52.078;5.070;2023-12-04T09:15:35;10.37;;;5.67;;
77598;SDS011;66758;52.078;5.070;2023-12-04T09:18:00;9.47;;;5.17;;
77598;SDS011;66758;52.078;5.070;2023-12-04T09:20:26;11.13;;;5.47;;
77598;SDS011;66758;52.078;5.070;2023-12-04T09:22:51;13.00;;;5.40;;
77598;SDS011;66758;52.078;5.070;2023-12-04T09:25:17;11.37;;;5.37;;
77598;SDS011;66758;52.078;5.070;2023-12-04T09:27:43;9.68;;;5.68;;
77598;SDS011;66758;52.078;5.070;2023-12-04T09:30:08;9.93;;;4.63;;
77598;SDS011;66758;52.078;5.070;2023-12-04T09:32:34;13.07;;;6.55;;
77598;SDS011;66758;52.078;5.070;2023-12-04T09:34:59;9.47;;;5.77;;
77598;SDS011;66758;52.078;5.070;2023-12-04T09:37:25;13.30;;;6.13;;
77598;SDS011;66758;52.078;5.070;2023-12-04T09:39:50;10.87;;;5.60;;
77598;SDS011;66758;52.078;5.070;2023-12-04T09:42:16;9.40;;;4.50;;
77598;SDS011;66758;52.078;5.070;2023-12-04T09:44:43;10.80;;;5.53;;
77598;SDS011;66758;52.078;5.070;2023-12-04T09:47:10;10.82;;;5.20;;
77598;SDS011;66758;52.078;5.070;2023-12-04T09:49:35;10.03;;;5.33;;
77598;SDS011;66758;52.078;5.070;2023-12-04T09:52:01;11.50;;;5.77;;
77598;SDS011;66758;52.078;5.070;2023-12-04T09:54:29;10.40;;;5.55;;
77598;SDS011;66758;52.078;5.070;2023-12-04T09:56:55;11.00;;;5.18;;
77598;SDS011;66758;52.078;5.070;2023-12-04T09:59:23;14.15;;;5.07;;
77598;SDS011;66758;52.078;5.070;2023-12-04T10:01:52;11.30;;;5.73;;
77598;SDS011;66758;52.078;5.070;2023-12-04T10:04:18;9.93;;;5.25;;
77598;SDS011;66758;52.078;5.070;2023-12-04T10:06:44;12.43;;;5.67;;
77598;SDS011;66758;52.078;5.070;2023-12-04T10:09:10;14.88;;;5.25;;
77598;SDS011;66758;52.078;5.070;2023-12-04T10:11:41;10.88;;;5.55;;
77598;SDS011;66758;52.078;5.070;2023-12-04T10:14:19;11.38;;;5.72;;
77598;SDS011;66758;52.078;5.070;2023-12-04T10:16:46;12.32;;;5.40;;
77598;SDS011;66758;52.078;5.070;2023-12-04T10:21:43;7.85;;;4.40;;
77598;SDS011;66758;52.078;5.070;2023-12-04T10:24:09;11.15;;;5.65;;
77598;SDS011;66758;52.078;5.070;2023-12-04T10:26:35;12.00;;;5.27;;
77598;SDS011;66758;52.078;5.070;2023-12-04T10:29:01;11.18;;;4.65;;
77598;SDS011;66758;52.078;5.070;2023-12-04T10:31:34;10.98;;;5.88;;
77598;SDS011;66758;52.078;5.070;2023-12-04T10:34:01;9.45;;;5.47;;
77598;SDS011;66758;52.078;5.070;2023-12-04T10:36:29;9.33;;;5.50;;
77598;SDS011;66758;52.078;5.070;2023-12-04T10:38:58;10.93;;;5.78;;
77598;SDS011;66758;52.078;5.070;2023-12-04T10:41:30;10.77;;;5.15;;
77598;SDS011;66758;52.078;5.070;2023-12-04T10:43:56;9.15;;;5.70;;
77598;SDS011;66758;52.078;5.070;2023-12-04T10:46:24;12.97;;;5.87;;
77598;SDS011;66758;52.078;5.070;2023-12-04T10:48:49;11.85;;;6.13;;
77598;SDS011;66758;52.078;5.070;2023-12-04T10:51:16;11.13;;;5.75;;
77598;SDS011;66758;52.078;5.070;2023-12-04T10:53:43;10.52;;;5.25;;
77598;SDS011;66758;52.078;5.070;2023-12-04T10:56:10;11.10;;;5.47;;
77598;SDS011;66758;52.078;5.070;2023-12-04T10:59:00;9.65;;;5.32;;
77598;SDS011;66758;52.078;5.070;2023-12-04T11:01:27;10.10;;;5.20;;
77598;SDS011;66758;52.078;5.070;2023-12-04T11:03:53;12.15;;;5.90;;
77598;SDS011;66758;52.078;5.070;2023-12-04T11:06:23;10.57;;;6.20;;
77598;SDS011;66758;52.078;5.070;2023-12-04T11:08:50;11.77;;;5.13;;
77598;SDS011;66758;52.078;5.070;2023-12-04T11:11:24;13.63;;;5.80;;
77598;SDS011;66758;52.078;5.070;2023-12-04T11:13:54;14.18;;;6.68;;
77598;SDS011;66758;52.078;5.070;2023-12-04T11:22:17;11.73;;;5.77;;
77598;SDS011;66758;52.078;5.070;2023-12-04T11:24:45;14.18;;;6.20;;
77598;SDS011;66758;52.078;5.070;2023-12-04T11:27:14;10.32;;;5.05;;
77598;SDS011;66758;52.078;5.070;2023-12-04T11:29:41;11.55;;;6.00;;
77598;SDS011;66758;52.078;5.070;2023-12-04T11:32:07;10.13;;;5.88;;
77598;SDS011;66758;52.078;5.070;2023-12-04T11:34:37;11.47;;;5.77;;
77598;SDS011;66758;52.078;5.070;2023-12-04T11:37:12;10.65;;;4.93;;
77598;SDS011;66758;52.078;5.070;2023-12-04T11:39:38;13.98;;;6.30;;
77598;SDS011;66758;52.078;5.070;2023-12-04T11:42:06;11.50;;;5.70;;
77598;SDS011;66758;52.078;5.070;2023-12-04T11:44:32;12.07;;;6.53;;
77598;SDS011;66758;52.078;5.070;2023-12-04T11:47:05;10.70;;;6.68;;
77598;SDS011;66758;52.078;5.070;2023-12-04T11:49:31;12.52;;;6.65;;
77598;SDS011;66758;52.078;5.070;2023-12-04T11:52:01;14.07;;;6.60;;
77598;SDS011;66758;52.078;5.070;2023-12-04T11:54:35;14.40;;;6.37;;
77598;SDS011;66758;52.078;5.070;2023-12-04T11:57:23;12.68;;;6.68;;
77598;SDS011;66758;52.078;5.070;2023-12-04T12:00:39;14.68;;;6.05;;
77598;SDS011;66758;52.078;5.070;2023-12-04T12:02:47;11.68;;;6.57;;
77598;SDS011;66758;52.078;5.070;2023-12-04T12:05:14;13.63;;;7.15;;
77598;SDS011;66758;52.078;5.070;2023-12-04T12:07:39;13.97;;;6.63;;
77598;SDS011;66758;52.078;5.070;2023-12-04T12:10:05;11.13;;;5.87;;
77598;SDS011;66758;52.078;5.070;2023-12-04T12:12:31;12.70;;;6.80;;
77598;SDS011;66758;52.078;5.070;2023-12-04T12:14:57;15.05;;;7.70;;
77598;SDS011;66758;52.078;5.070;2023-12-04T12:17:23;14.13;;;6.93;;
77598;SDS011;66758;52.078;5.070;2023-12-04T12:19:50;12.43;;;7.10;;
77598;SDS011;66758;52.078;5.070;2023-12-04T12:22:15;14.10;;;7.15;;
77598;SDS011;66758;52.078;5.070;2023-12-04T12:24:42;13.90;;;7.23;;
77598;SDS011;66758;52.078;5.070;2023-12-04T12:27:07;13.15;;;6.53;;
77598;SDS011;66758;52.078;5.070;2023-12-04T12:29:32;13.07;;;6.90;;
77598;SDS011;66758;52.078;5.070;2023-12-04T12:31:58;14.53;;;8.10;;
77598;SDS011;66758;52.078;5.070;2023-12-04T12:34:23;15.30;;;7.50;;
77598;SDS011;66758;52.078;5.070;2023-12-04T12:36:50;15.40;;;7.32;;
77598;SDS011;66758;52.078;5.070;2023-12-04T12:39:15;14.47;;;7.23;;
77598;SDS011;66758;52.078;5.070;2023-12-04T12:41:48;13.75;;;6.97;;
77598;SDS011;66758;52.078;5.070;2023-12-04T12:44:14;15.68;;;7.53;;
77598;SDS011;66758;52.078;5.070;2023-12-04T12:46:40;12.63;;;7.23;;
77598;SDS011;66758;52.078;5.070;2023-12-04T12:49:06;16.55;;;7.75;;
77598;SDS011;66758;52.078;5.070;2023-12-04T12:51:31;12.87;;;7.07;;
77598;SDS011;66758;52.078;5.070;2023-12-04T12:53:57;14.52;;;7.10;;
77598;SDS011;66758;52.078;5.070;2023-12-04T12:56:25;10.30;;;6.22;;
77598;SDS011;66758;52.078;5.070;2023-12-04T12:58:52;12.23;;;7.13;;
77598;SDS011;66758;52.078;5.070;2023-12-04T13:01:18;14.37;;;6.90;;
77598;SDS011;66758;52.078;5.070;2023-12-04T13:03:46;13.05;;;6.90;;
77598;SDS011;66758;52.078;5.070;2023-12-04T13:06:12;12.13;;;6.93;;
77598;SDS011;66758;52.078;5.070;2023-12-04T13:08:38;15.73;;;7.68;;
77598;SDS011;66758;52.078;5.070;2023-12-04T13:11:03;13.90;;;7.50;;
77598;SDS011;66758;52.078;5.070;2023-12-04T13:13:30;16.00;;;8.35;;
77598;SDS011;66758;52.078;5.070;2023-12-04T13:15:57;14.23;;;6.43;;
77598;SDS011;66758;52.078;5.070;2023-12-04T13:18:22;14.30;;;6.80;;
77598;SDS011;66758;52.078;5.070;2023-12-04T13:20:48;15.87;;;7.53;;
77598;SDS011;66758;52.078;5.070;2023-12-04T13:23:13;16.77;;;8.60;;
77598;SDS011;66758;52.078;5.070;2023-12-04T13:25:39;10.70;;;6.50;;
77598;SDS011;66758;52.078;5.070;2023-12-04T13:28:04;12.80;;;7.17;;
77598;SDS011;66758;52.078;5.070;2023-12-04T13:30:30;14.27;;;7.13;;
77598;SDS011;66758;52.078;5.070;2023-12-04T13:32:56;16.20;;;7.97;;
77598;SDS011;66758;52.078;5.070;2023-12-04T13:35:21;12.50;;;6.93;;
77598;SDS011;66758;52.078;5.070;2023-12-04T13:37:48;13.53;;;7.77;;
77598;SDS011;66758;52.078;5.070;2023-12-04T13:40:19;14.65;;;7.78;;
77598;SDS011;66758;52.078;5.070;2023-12-04T13:42:45;15.67;;;7.23;;
77598;SDS011;66758;52.078;5.070;2023-12-04T13:45:32;16.58;;;7.60;;
77598;SDS011;66758;52.078;5.070;2023-12-04T13:47:59;16.10;;;7.87;;
77598;SDS011;66758;52.078;5.070;2023-12-04T13:50:25;13.40;;;7.25;;
77598;SDS011;66758;52.078;5.070;2023-12-04T13:52:50;14.27;;;6.33;;
77598;SDS011;66758;52.078;5.070;2023-12-04T13:55:20;17.67;;;7.47;;
77598;SDS011;66758;52.078;5.070;2023-12-04T13:57:56;15.60;;;7.60;;
77598;SDS011;66758;52.078;5.070;2023-12-04T14:00:35;14.77;;;7.97;;
77598;SDS011;66758;52.078;5.070;2023-12-04T14:03:01;15.73;;;8.38;;
77598;SDS011;66758;52.078;5.070;2023-12-04T14:05:33;16.10;;;8.15;;
77598;SDS011;66758;52.078;5.070;2023-12-04T14:08:01;13.30;;;7.25;;
77598;SDS011;66758;52.078;5.070;2023-12-04T14:10:29;9.65;;;5.38;;
77598;SDS011;66758;52.078;5.070;2023-12-04T14:12:55;13.63;;;7.10;;
77598;SDS011;66758;52.078;5.070;2023-12-04T14:15:20;11.95;;;7.03;;
77598;SDS011;66758;52.078;5.070;2023-12-04T14:17:46;15.77;;;7.40;;
77598;SDS011;66758;52.078;5.070;2023-12-04T14:20:15;14.70;;;7.53;;
77598;SDS011;66758;52.078;5.070;2023-12-04T14:22:43;14.68;;;8.18;;
77598;SDS011;66758;52.078;5.070;2023-12-04T14:25:12;12.70;;;6.63;;
77598;SDS011;66758;52.078;5.070;2023-12-04T14:27:38;14.23;;;7.03;;
77598;SDS011;66758;52.078;5.070;2023-12-04T14:30:08;16.30;;;8.10;;
77598;SDS011;66758;52.078;5.070;2023-12-04T14:32:34;16.00;;;6.53;;
77598;SDS011;66758;52.078;5.070;2023-12-04T14:34:59;15.57;;;7.60;;
77598;SDS011;66758;52.078;5.070;2023-12-04T14:37:25;13.23;;;7.03;;